sensor_id;sensor_type;location;lat;lon;timestamp;temperature;humidity
5870;DHT22;2961;47.702;9.410;2024-01-06T00:01:25;4.30;99.90
5870;DHT22;2961;47.702;9.410;2024-01-06T00:03:52;4.30;99.90
5870;DHT22;2961;47.702;9.410;2024-01-06T00:06:19;4.30;99.90
5870;DHT22;2961;47.702;9.410;2024-01-06T00:08:46;4.50;99.90
5870;DHT22;2961;47.702;9.410;2024-01-06T00:11:19;4.50;99.90
5870;DHT22;2961;47.702;9.410;2024-01-06T00:13:47;4.50;99.90
5870;DHT22;2961;47.702;9.410;2024-01-06T00:16:16;4.50;99.90
5870;DHT22;2961;47.702;9.410;2024-01-06T00:18:44;4.50;99.90
5870;DHT22;2961;47.702;9.410;2024-01-06T00:21:11;4.40;99.90
5870;DHT22;2961;47.702;9.410;2024-01-06T00:23:37;4.40;99.90
5870;DHT22;2961;47.702;9.410;2024-01-06T00:26:04;4.30;99.90
5870;DHT22;2961;47.702;9.410;2024-01-06T00:28:31;4.40;99.90
5870;DHT22;2961;47.702;9.410;2024-01-06T00:30:59;4.30;99.90
5870;DHT22;2961;47.702;9.410;2024-01-06T00:33:26;4.40;99.90
5870;DHT22;2961;47.702;9.410;2024-01-06T00:35:53;4.40;99.90
5870;DHT22;2961;47.702;9.410;2024-01-06T00:38:21;4.30;99.90
5870;DHT22;2961;47.702;9.410;2024-01-06T00:40:48;4.30;99.90
5870;DHT22;2961;47.702;9.410;2024-01-06T00:43:14;4.30;99.90
5870;DHT22;2961;47.702;9.410;2024-01-06T00:45:41;4.30;99.90
5870;DHT22;2961;47.702;9.410;2024-01-06T00:48:09;4.30;99.90
5870;DHT22;2961;47.702;9.410;2024-01-06T00:50:36;4.30;99.90
5870;DHT22;2961;47.702;9.410;2024-01-06T00:53:03;4.20;99.90
5870;DHT22;2961;47.702;9.410;2024-01-06T00:55:30;4.20;99.90
5870;DHT22;2961;47.702;9.410;2024-01-06T00:57:57;4.20;99.90
5870;DHT22;2961;47.702;9.410;2024-01-06T01:00:23;4.20;99.90
5870;DHT22;2961;47.702;9.410;2024-01-06T01:02:52;4.20;99.90
5870;DHT22;2961;47.702;9.410;2024-01-06T01:05:20;4.30;99.90
5870;DHT22;2961;47.702;9.410;2024-01-06T01:07:47;4.20;99.90
5870;DHT22;2961;47.702;9.410;2024-01-06T01:10:14;4.30;99.90
5870;DHT22;2961;47.702;9.410;2024-01-06T01:12:40;4.20;99.90
5870;DHT22;2961;47.702;9.410;2024-01-06T01:15:08;4.20;99.90
5870;DHT22;2961;47.702;9.410;2024-01-06T01:17:34;4.20;99.90
5870;DHT22;2961;47.702;9.410;2024-01-06T01:20:03;4.20;99.90
5870;DHT22;2961;47.702;9.410;2024-01-06T01:22:31;4.20;99.90
5870;DHT22;2961;47.702;9.410;2024-01-06T01:24:58;4.20;99.90
5870;DHT22;2961;47.702;9.410;2024-01-06T01:27:30;4.20;99.90
5870;DHT22;2961;47.702;9.410;2024-01-06T01:29:57;4.20;99.90
5870;DHT22;2961;47.702;9.410;2024-01-06T01:32:24;4.20;99.90
5870;DHT22;2961;47.702;9.410;2024-01-06T01:34:51;4.20;99.90
5870;DHT22;2961;47.702;9.410;2024-01-06T01:37:17;4.20;99.90
5870;DHT22;2961;47.702;9.410;2024-01-06T01:39:47;4.10;99.90
5870;DHT22;2961;47.702;9.410;2024-01-06T01:42:13;4.10;99.90
5870;DHT22;2961;47.702;9.410;2024-01-06T01:44:40;4.10;99.90
5870;DHT22;2961;47.702;9.410;2024-01-06T01:47:07;4.10;99.90
5870;DHT22;2961;47.702;9.410;2024-01-06T01:49:34;4.10;99.90
5870;DHT22;2961;47.702;9.410;2024-01-06T01:52:01;4.10;99.90
5870;DHT22;2961;47.702;9.410;2024-01-06T01:54:28;4.10;99.90
5870;DHT22;2961;47.702;9.410;2024-01-06T01:56:56;4.10;99.90
5870;DHT22;2961;47.702;9.410;2024-01-06T01:59:23;4.10;99.90
5870;DHT22;2961;47.702;9.410;2024-01-06T02:01:50;4.10;99.90
5870;DHT22;2961;47.702;9.410;2024-01-06T02:04:17;4.10;99.90
5870;DHT22;2961;47.702;9.410;2024-01-06T02:06:44;4.10;99.90
5870;DHT22;2961;47.702;9.410;2024-01-06T02:09:11;4.10;99.90
5870;DHT22;2961;47.702;9.410;2024-01-06T02:11:38;4.10;99.90
5870;DHT22;2961;47.702;9.410;2024-01-06T02:14:06;4.10;99.90
5870;DHT22;2961;47.702;9.410;2024-01-06T02:16:33;4.10;99.90
5870;DHT22;2961;47.702;9.410;2024-01-06T02:19:00;4.10;99.90
5870;DHT22;2961;47.702;9.410;2024-01-06T02:21:28;4.10;99.90
5870;DHT22;2961;47.702;9.410;2024-01-06T02:23:56;4.20;99.90
5870;DHT22;2961;47.702;9.410;2024-01-06T02:26:23;4.20;99.90
5870;DHT22;2961;47.702;9.410;2024-01-06T02:28:50;4.20;99.90
5870;DHT22;2961;47.702;9.410;2024-01-06T02:31:16;4.20;99.90
5870;DHT22;2961;47.702;9.410;2024-01-06T02:33:43;4.20;99.90
5870;DHT22;2961;47.702;9.410;2024-01-06T02:36:10;4.20;99.90
5870;DHT22;2961;47.702;9.410;2024-01-06T02:38:37;4.20;99.90
5870;DHT22;2961;47.702;9.410;2024-01-06T02:41:05;4.20;99.90
5870;DHT22;2961;47.702;9.410;2024-01-06T02:43:31;4.20;99.90
5870;DHT22;2961;47.702;9.410;2024-01-06T02:45:58;4.20;99.90
5870;DHT22;2961;47.702;9.410;2024-01-06T02:48:25;4.20;99.90
5870;DHT22;2961;47.702;9.410;2024-01-06T02:50:52;4.20;99.90
5870;DHT22;2961;47.702;9.410;2024-01-06T02:53:19;4.20;99.90
5870;DHT22;2961;47.702;9.410;2024-01-06T02:55:45;4.20;99.90
5870;DHT22;2961;47.702;9.410;2024-01-06T02:58:13;4.10;99.90
5870;DHT22;2961;47.702;9.410;2024-01-06T03:00:40;4.10;99.90
5870;DHT22;2961;47.702;9.410;2024-01-06T03:03:07;4.10;99.90
5870;DHT22;2961;47.702;9.410;2024-01-06T03:05:34;4.10;99.90
5870;DHT22;2961;47.702;9.410;2024-01-06T03:08:02;4.00;99.90
5870;DHT22;2961;47.702;9.410;2024-01-06T03:10:29;4.00;99.90
5870;DHT22;2961;47.702;9.410;2024-01-06T03:12:56;3.90;99.90
5870;DHT22;2961;47.702;9.410;2024-01-06T03:15:25;4.00;99.90
5870;DHT22;2961;47.702;9.410;2024-01-06T03:17:52;4.00;99.90
5870;DHT22;2961;47.702;9.410;2024-01-06T03:20:19;4.00;99.90
5870;DHT22;2961;47.702;9.410;2024-01-06T03:22:45;3.90;99.90
5870;DHT22;2961;47.702;9.410;2024-01-06T03:25:12;3.90;99.90
5870;DHT22;2961;47.702;9.410;2024-01-06T03:27:39;3.90;99.90
5870;DHT22;2961;47.702;9.410;2024-01-06T03:30:07;3.90;99.90
5870;DHT22;2961;47.702;9.410;2024-01-06T03:32:35;3.80;99.90
5870;DHT22;2961;47.702;9.410;2024-01-06T03:35:02;3.80;99.90
5870;DHT22;2961;47.702;9.410;2024-01-06T03:37:28;3.80;99.90
5870;DHT22;2961;47.702;9.410;2024-01-06T03:39:55;3.80;99.90
5870;DHT22;2961;47.702;9.410;2024-01-06T03:42:22;3.80;99.90
5870;DHT22;2961;47.702;9.410;2024-01-06T03:44:49;3.80;99.90
5870;DHT22;2961;47.702;9.410;2024-01-06T03:47:15;3.80;99.90
5870;DHT22;2961;47.702;9.410;2024-01-06T03:49:44;3.80;99.90
5870;DHT22;2961;47.702;9.410;2024-01-06T03:52:11;3.80;99.90
5870;DHT22;2961;47.702;9.410;2024-01-06T03:54:39;3.80;99.90
5870;DHT22;2961;47.702;9.410;2024-01-06T03:57:06;3.80;99.90
5870;DHT22;2961;47.702;9.410;2024-01-06T03:59:33;3.70;99.90
5870;DHT22;2961;47.702;9.410;2024-01-06T04:01:59;3.80;99.90
5870;DHT22;2961;47.702;9.410;2024-01-06T04:04:26;3.80;99.90
5870;DHT22;2961;47.702;9.410;2024-01-06T04:06:54;3.80;99.90
5870;DHT22;2961;47.702;9.410;2024-01-06T04:09:21;3.80;99.90
5870;DHT22;2961;47.702;9.410;2024-01-06T04:11:48;3.80;99.90
5870;DHT22;2961;47.702;9.410;2024-01-06T04:14:14;3.70;99.90
5870;DHT22;2961;47.702;9.410;2024-01-06T04:16:41;3.70;99.90
5870;DHT22;2961;47.702;9.410;2024-01-06T04:19:08;3.70;99.90
5870;DHT22;2961;47.702;9.410;2024-01-06T04:21:37;3.60;99.90
5870;DHT22;2961;47.702;9.410;2024-01-06T04:24:05;3.70;99.90
5870;DHT22;2961;47.702;9.410;2024-01-06T04:26:32;3.70;99.90
5870;DHT22;2961;47.702;9.410;2024-01-06T04:28:59;3.60;99.90
5870;DHT22;2961;47.702;9.410;2024-01-06T04:31:26;3.70;99.90
5870;DHT22;2961;47.702;9.410;2024-01-06T04:33:52;3.60;99.90
5870;DHT22;2961;47.702;9.410;2024-01-06T04:36:19;3.60;99.90
5870;DHT22;2961;47.702;9.410;2024-01-06T04:38:46;3.60;99.90
5870;DHT22;2961;47.702;9.410;2024-01-06T04:41:14;3.60;99.90
5870;DHT22;2961;47.702;9.410;2024-01-06T04:43:41;3.60;99.90
5870;DHT22;2961;47.702;9.410;2024-01-06T04:46:08;3.60;99.90
5870;DHT22;2961;47.702;9.410;2024-01-06T04:48:35;3.60;99.90
5870;DHT22;2961;47.702;9.410;2024-01-06T04:51:02;3.50;99.90
5870;DHT22;2961;47.702;9.410;2024-01-06T04:53:29;3.60;99.90
5870;DHT22;2961;47.702;9.410;2024-01-06T04:55:55;3.60;99.90
5870;DHT22;2961;47.702;9.410;2024-01-06T04:58:23;3.60;99.90
5870;DHT22;2961;47.702;9.410;2024-01-06T05:00:50;3.70;99.90
5870;DHT22;2961;47.702;9.410;2024-01-06T05:03:18;3.70;99.90
5870;DHT22;2961;47.702;9.410;2024-01-06T05:05:44;3.70;99.90
5870;DHT22;2961;47.702;9.410;2024-01-06T05:08:11;3.60;99.90
5870;DHT22;2961;47.702;9.410;2024-01-06T05:10:38;3.60;99.90
5870;DHT22;2961;47.702;9.410;2024-01-06T05:13:05;3.60;99.90
5870;DHT22;2961;47.702;9.410;2024-01-06T05:15:33;3.60;99.90
5870;DHT22;2961;47.702;9.410;2024-01-06T05:18:00;3.50;99.90
5870;DHT22;2961;47.702;9.410;2024-01-06T05:20:26;3.60;99.90
5870;DHT22;2961;47.702;9.410;2024-01-06T05:22:53;3.60;99.90
5870;DHT22;2961;47.702;9.410;2024-01-06T05:25:20;3.60;99.90
5870;DHT22;2961;47.702;9.410;2024-01-06T05:27:47;3.60;99.90
5870;DHT22;2961;47.702;9.410;2024-01-06T05:30:14;3.60;99.90
5870;DHT22;2961;47.702;9.410;2024-01-06T05:32:42;3.60;99.90
5870;DHT22;2961;47.702;9.410;2024-01-06T05:35:09;3.60;99.90
5870;DHT22;2961;47.702;9.410;2024-01-06T05:37:36;3.60;99.90
5870;DHT22;2961;47.702;9.410;2024-01-06T05:40:03;3.60;99.90
5870;DHT22;2961;47.702;9.410;2024-01-06T05:42:32;3.60;99.90
5870;DHT22;2961;47.702;9.410;2024-01-06T05:44:58;3.60;99.90
5870;DHT22;2961;47.702;9.410;2024-01-06T05:47:25;3.50;99.90
5870;DHT22;2961;47.702;9.410;2024-01-06T05:49:53;3.50;99.90
5870;DHT22;2961;47.702;9.410;2024-01-06T05:52:20;3.50;99.90
5870;DHT22;2961;47.702;9.410;2024-01-06T05:54:47;3.50;99.90
5870;DHT22;2961;47.702;9.410;2024-01-06T05:57:13;3.40;99.90
5870;DHT22;2961;47.702;9.410;2024-01-06T05:59:41;3.40;99.90
5870;DHT22;2961;47.702;9.410;2024-01-06T06:02:07;3.40;99.90
5870;DHT22;2961;47.702;9.410;2024-01-06T06:04:34;3.30;99.90
5870;DHT22;2961;47.702;9.410;2024-01-06T06:07:02;3.30;99.90
5870;DHT22;2961;47.702;9.410;2024-01-06T06:09:29;3.30;99.90
5870;DHT22;2961;47.702;9.410;2024-01-06T06:11:56;3.30;99.90
5870;DHT22;2961;47.702;9.410;2024-01-06T06:14:23;3.30;99.90
5870;DHT22;2961;47.702;9.410;2024-01-06T06:16:50;3.30;99.90
5870;DHT22;2961;47.702;9.410;2024-01-06T06:19:16;3.30;99.90
5870;DHT22;2961;47.702;9.410;2024-01-06T06:21:43;3.30;99.90
5870;DHT22;2961;47.702;9.410;2024-01-06T06:24:12;3.30;99.90
5870;DHT22;2961;47.702;9.410;2024-01-06T06:26:40;3.40;99.90
5870;DHT22;2961;47.702;9.410;2024-01-06T06:29:06;3.40;99.90
5870;DHT22;2961;47.702;9.410;2024-01-06T06:31:33;3.40;99.90
5870;DHT22;2961;47.702;9.410;2024-01-06T06:34:00;3.30;99.90
5870;DHT22;2961;47.702;9.410;2024-01-06T06:36:27;3.30;99.90
5870;DHT22;2961;47.702;9.410;2024-01-06T06:38:54;3.30;99.90
5870;DHT22;2961;47.702;9.410;2024-01-06T06:41:24;3.30;99.90
5870;DHT22;2961;47.702;9.410;2024-01-06T06:43:51;3.20;99.90
5870;DHT22;2961;47.702;9.410;2024-01-06T06:46:18;3.30;99.90
5870;DHT22;2961;47.702;9.410;2024-01-06T06:48:45;3.20;99.90
5870;DHT22;2961;47.702;9.410;2024-01-06T06:51:11;3.20;99.90
5870;DHT22;2961;47.702;9.410;2024-01-06T06:53:38;3.20;99.90
5870;DHT22;2961;47.702;9.410;2024-01-06T06:56:06;3.10;99.90
5870;DHT22;2961;47.702;9.410;2024-01-06T06:58:34;3.10;99.90
5870;DHT22;2961;47.702;9.410;2024-01-06T07:01:01;3.10;99.90
5870;DHT22;2961;47.702;9.410;2024-01-06T07:03:28;3.10;99.90
5870;DHT22;2961;47.702;9.410;2024-01-06T07:05:55;3.10;99.90
5870;DHT22;2961;47.702;9.410;2024-01-06T07:08:21;3.10;99.90
5870;DHT22;2961;47.702;9.410;2024-01-06T07:10:48;3.10;99.90
5870;DHT22;2961;47.702;9.410;2024-01-06T07:13:15;3.10;99.90
5870;DHT22;2961;47.702;9.410;2024-01-06T07:15:43;3.10;99.90
5870;DHT22;2961;47.702;9.410;2024-01-06T07:18:10;3.10;99.90
5870;DHT22;2961;47.702;9.410;2024-01-06T07:20:37;3.10;99.90
5870;DHT22;2961;47.702;9.410;2024-01-06T07:23:04;3.10;99.90
5870;DHT22;2961;47.702;9.410;2024-01-06T07:25:30;3.10;99.90
5870;DHT22;2961;47.702;9.410;2024-01-06T07:27:57;3.10;99.90
5870;DHT22;2961;47.702;9.410;2024-01-06T07:30:24;3.20;99.90
5870;DHT22;2961;47.702;9.410;2024-01-06T07:32:52;3.20;99.90
5870;DHT22;2961;47.702;9.410;2024-01-06T07:35:19;3.20;99.90
5870;DHT22;2961;47.702;9.410;2024-01-06T07:37:45;3.20;99.90
5870;DHT22;2961;47.702;9.410;2024-01-06T07:40:12;3.20;99.90
5870;DHT22;2961;47.702;9.410;2024-01-06T07:42:42;3.20;99.90
5870;DHT22;2961;47.702;9.410;2024-01-06T07:45:09;3.20;99.90
5870;DHT22;2961;47.702;9.410;2024-01-06T07:47:36;3.20;99.90
5870;DHT22;2961;47.702;9.410;2024-01-06T07:50:06;3.30;99.90
5870;DHT22;2961;47.702;9.410;2024-01-06T07:52:34;3.30;99.90
5870;DHT22;2961;47.702;9.410;2024-01-06T07:55:00;3.30;99.90
5870;DHT22;2961;47.702;9.410;2024-01-06T07:57:27;3.30;99.90
5870;DHT22;2961;47.702;9.410;2024-01-06T07:59:54;3.30;99.90
5870;DHT22;2961;47.702;9.410;2024-01-06T08:02:21;3.30;99.90
5870;DHT22;2961;47.702;9.410;2024-01-06T08:04:47;3.30;99.90
5870;DHT22;2961;47.702;9.410;2024-01-06T08:07:16;3.40;99.90
5870;DHT22;2961;47.702;9.410;2024-01-06T08:09:42;3.40;99.90
5870;DHT22;2961;47.702;9.410;2024-01-06T08:12:09;3.40;99.90
5870;DHT22;2961;47.702;9.410;2024-01-06T08:14:37;3.30;99.90
5870;DHT22;2961;47.702;9.410;2024-01-06T08:17:04;3.30;99.90
5870;DHT22;2961;47.702;9.410;2024-01-06T08:19:31;3.30;99.90
5870;DHT22;2961;47.702;9.410;2024-01-06T08:21:59;3.30;99.90
5870;DHT22;2961;47.702;9.410;2024-01-06T08:24:26;3.30;99.90
5870;DHT22;2961;47.702;9.410;2024-01-06T08:26:53;3.40;99.90
5870;DHT22;2961;47.702;9.410;2024-01-06T08:29:20;3.40;99.90
5870;DHT22;2961;47.702;9.410;2024-01-06T08:31:46;3.40;99.90
5870;DHT22;2961;47.702;9.410;2024-01-06T08:34:15;3.40;99.90
5870;DHT22;2961;47.702;9.410;2024-01-06T08:36:43;3.50;99.90
5870;DHT22;2961;47.702;9.410;2024-01-06T08:39:09;3.50;99.90
5870;DHT22;2961;47.702;9.410;2024-01-06T08:41:38;3.50;99.90
5870;DHT22;2961;47.702;9.410;2024-01-06T08:44:05;3.40;99.90
5870;DHT22;2961;47.702;9.410;2024-01-06T08:46:32;3.50;99.90
5870;DHT22;2961;47.702;9.410;2024-01-06T08:48:58;3.50;99.90
5870;DHT22;2961;47.702;9.410;2024-01-06T08:51:26;3.50;99.90
5870;DHT22;2961;47.702;9.410;2024-01-06T08:53:53;3.50;99.90
5870;DHT22;2961;47.702;9.410;2024-01-06T08:56:20;3.50;99.90
5870;DHT22;2961;47.702;9.410;2024-01-06T08:58:48;3.60;99.90
5870;DHT22;2961;47.702;9.410;2024-01-06T09:01:15;3.50;99.90
5870;DHT22;2961;47.702;9.410;2024-01-06T09:03:42;3.50;99.90
5870;DHT22;2961;47.702;9.410;2024-01-06T09:06:09;3.60;99.90
5870;DHT22;2961;47.702;9.410;2024-01-06T09:08:35;3.60;99.90
5870;DHT22;2961;47.702;9.410;2024-01-06T09:11:02;3.60;99.90
5870;DHT22;2961;47.702;9.410;2024-01-06T09:13:30;3.60;99.90
5870;DHT22;2961;47.702;9.410;2024-01-06T09:15:59;3.60;99.90
5870;DHT22;2961;47.702;9.410;2024-01-06T09:18:26;3.60;99.90
5870;DHT22;2961;47.702;9.410;2024-01-06T09:20:53;3.60;99.90
5870;DHT22;2961;47.702;9.410;2024-01-06T09:23:20;3.70;99.90
5870;DHT22;2961;47.702;9.410;2024-01-06T09:25:47;3.70;99.90
5870;DHT22;2961;47.702;9.410;2024-01-06T09:28:15;3.70;99.90
5870;DHT22;2961;47.702;9.410;2024-01-06T09:30:42;3.70;99.90
5870;DHT22;2961;47.702;9.410;2024-01-06T09:33:10;3.70;99.90
5870;DHT22;2961;47.702;9.410;2024-01-06T09:35:41;3.80;99.90
5870;DHT22;2961;47.702;9.410;2024-01-06T09:38:09;3.90;99.90
5870;DHT22;2961;47.702;9.410;2024-01-06T09:40:41;3.90;99.90
5870;DHT22;2961;47.702;9.410;2024-01-06T09:43:08;3.90;99.90
5870;DHT22;2961;47.702;9.410;2024-01-06T09:45:36;3.90;99.90
5870;DHT22;2961;47.702;9.410;2024-01-06T09:48:11;3.90;99.90
5870;DHT22;2961;47.702;9.410;2024-01-06T09:50:41;4.00;99.90
5870;DHT22;2961;47.702;9.410;2024-01-06T09:53:09;4.00;99.90
5870;DHT22;2961;47.702;9.410;2024-01-06T09:55:37;4.00;99.90
5870;DHT22;2961;47.702;9.410;2024-01-06T09:58:04;4.10;99.90
5870;DHT22;2961;47.702;9.410;2024-01-06T10:00:31;4.20;99.90
5870;DHT22;2961;47.702;9.410;2024-01-06T10:02:59;4.20;99.90
5870;DHT22;2961;47.702;9.410;2024-01-06T10:05:27;4.20;99.90
5870;DHT22;2961;47.702;9.410;2024-01-06T10:07:53;4.20;99.90
5870;DHT22;2961;47.702;9.410;2024-01-06T10:10:22;4.20;99.90
5870;DHT22;2961;47.702;9.410;2024-01-06T10:12:53;4.30;99.90
5870;DHT22;2961;47.702;9.410;2024-01-06T10:15:21;4.40;99.90
5870;DHT22;2961;47.702;9.410;2024-01-06T10:17:48;4.40;99.90
5870;DHT22;2961;47.702;9.410;2024-01-06T10:20:15;4.40;99.90
5870;DHT22;2961;47.702;9.410;2024-01-06T10:22:45;4.40;99.90
5870;DHT22;2961;47.702;9.410;2024-01-06T10:25:12;4.60;99.90
5870;DHT22;2961;47.702;9.410;2024-01-06T10:27:41;4.60;99.90
5870;DHT22;2961;47.702;9.410;2024-01-06T10:30:09;4.70;99.90
5870;DHT22;2961;47.702;9.410;2024-01-06T10:32:36;4.80;99.90
5870;DHT22;2961;47.702;9.410;2024-01-06T10:35:04;4.80;99.90
5870;DHT22;2961;47.702;9.410;2024-01-06T10:37:32;4.80;99.90
5870;DHT22;2961;47.702;9.410;2024-01-06T10:40:08;4.80;99.90
5870;DHT22;2961;47.702;9.410;2024-01-06T10:42:36;4.70;99.90
5870;DHT22;2961;47.702;9.410;2024-01-06T10:45:06;4.80;99.90
5870;DHT22;2961;47.702;9.410;2024-01-06T10:47:35;4.70;99.90
5870;DHT22;2961;47.702;9.410;2024-01-06T10:50:02;4.70;99.90
5870;DHT22;2961;47.702;9.410;2024-01-06T10:52:30;4.70;99.90
5870;DHT22;2961;47.702;9.410;2024-01-06T10:54:57;4.60;99.90
5870;DHT22;2961;47.702;9.410;2024-01-06T10:57:26;4.70;99.90
5870;DHT22;2961;47.702;9.410;2024-01-06T10:59:53;4.70;99.90
5870;DHT22;2961;47.702;9.410;2024-01-06T11:02:21;4.70;99.90
5870;DHT22;2961;47.702;9.410;2024-01-06T11:04:49;4.70;99.90
5870;DHT22;2961;47.702;9.410;2024-01-06T11:07:18;4.70;99.90
5870;DHT22;2961;47.702;9.410;2024-01-06T11:09:50;4.60;99.90
5870;DHT22;2961;47.702;9.410;2024-01-06T11:12:17;4.60;99.90
5870;DHT22;2961;47.702;9.410;2024-01-06T11:14:46;4.60;99.90
5870;DHT22;2961;47.702;9.410;2024-01-06T11:17:13;4.70;99.90
5870;DHT22;2961;47.702;9.410;2024-01-06T11:19:44;4.70;99.90
5870;DHT22;2961;47.702;9.410;2024-01-06T11:22:25;4.60;99.90
5870;DHT22;2961;47.702;9.410;2024-01-06T11:24:54;4.70;99.90
5870;DHT22;2961;47.702;9.410;2024-01-06T11:27:23;4.60;99.90
5870;DHT22;2961;47.702;9.410;2024-01-06T11:29:53;4.70;99.90
5870;DHT22;2961;47.702;9.410;2024-01-06T11:32:25;4.70;99.90
5870;DHT22;2961;47.702;9.410;2024-01-06T11:34:53;4.80;99.90
5870;DHT22;2961;47.702;9.410;2024-01-06T11:37:25;4.80;99.90
5870;DHT22;2961;47.702;9.410;2024-01-06T11:40:02;4.80;99.90
5870;DHT22;2961;47.702;9.410;2024-01-06T11:42:32;4.70;99.90
5870;DHT22;2961;47.702;9.410;2024-01-06T11:45:03;4.70;99.90
5870;DHT22;2961;47.702;9.410;2024-01-06T11:47:32;4.70;99.90
5870;DHT22;2961;47.702;9.410;2024-01-06T11:50:00;4.60;99.90
5870;DHT22;2961;47.702;9.410;2024-01-06T11:52:30;4.60;99.90
5870;DHT22;2961;47.702;9.410;2024-01-06T11:54:57;4.60;99.90
5870;DHT22;2961;47.702;9.410;2024-01-06T11:57:25;4.60;99.90
5870;DHT22;2961;47.702;9.410;2024-01-06T11:59:52;4.60;99.90
5870;DHT22;2961;47.702;9.410;2024-01-06T12:02:20;4.60;99.90
5870;DHT22;2961;47.702;9.410;2024-01-06T12:04:49;4.60;99.90
5870;DHT22;2961;47.702;9.410;2024-01-06T12:07:17;4.50;99.90
5870;DHT22;2961;47.702;9.410;2024-01-06T12:09:45;4.60;99.90
5870;DHT22;2961;47.702;9.410;2024-01-06T12:12:15;4.60;99.90
5870;DHT22;2961;47.702;9.410;2024-01-06T12:14:42;4.50;99.90
5870;DHT22;2961;47.702;9.410;2024-01-06T12:17:11;4.50;99.90
5870;DHT22;2961;47.702;9.410;2024-01-06T12:19:40;4.50;99.90
5870;DHT22;2961;47.702;9.410;2024-01-06T12:22:11;4.50;99.90
5870;DHT22;2961;47.702;9.410;2024-01-06T12:24:38;4.50;99.90
5870;DHT22;2961;47.702;9.410;2024-01-06T12:27:07;4.50;99.90
5870;DHT22;2961;47.702;9.410;2024-01-06T12:29:37;4.50;99.90
5870;DHT22;2961;47.702;9.410;2024-01-06T12:32:05;4.50;99.90
5870;DHT22;2961;47.702;9.410;2024-01-06T12:34:31;4.50;99.90
5870;DHT22;2961;47.702;9.410;2024-01-06T12:37:00;4.50;99.90
5870;DHT22;2961;47.702;9.410;2024-01-06T12:39:29;4.50;99.90
5870;DHT22;2961;47.702;9.410;2024-01-06T12:41:57;4.50;99.90
5870;DHT22;2961;47.702;9.410;2024-01-06T12:44:25;4.50;99.90
5870;DHT22;2961;47.702;9.410;2024-01-06T12:46:52;4.40;99.90
5870;DHT22;2961;47.702;9.410;2024-01-06T12:49:19;4.30;99.90
5870;DHT22;2961;47.702;9.410;2024-01-06T12:51:46;4.30;99.90
5870;DHT22;2961;47.702;9.410;2024-01-06T12:54:14;4.20;99.90
5870;DHT22;2961;47.702;9.410;2024-01-06T12:56:41;4.30;99.90
5870;DHT22;2961;47.702;9.410;2024-01-06T12:59:07;4.30;99.90
5870;DHT22;2961;47.702;9.410;2024-01-06T13:01:34;4.30;99.90
5870;DHT22;2961;47.702;9.410;2024-01-06T13:04:01;4.30;99.90
5870;DHT22;2961;47.702;9.410;2024-01-06T13:06:28;4.30;99.90
5870;DHT22;2961;47.702;9.410;2024-01-06T13:08:55;4.30;99.90
5870;DHT22;2961;47.702;9.410;2024-01-06T13:11:24;4.20;99.90
5870;DHT22;2961;47.702;9.410;2024-01-06T13:13:50;4.10;99.90
5870;DHT22;2961;47.702;9.410;2024-01-06T13:16:17;4.10;99.90
5870;DHT22;2961;47.702;9.410;2024-01-06T13:18:44;4.10;99.90
5870;DHT22;2961;47.702;9.410;2024-01-06T13:21:11;4.10;99.90
5870;DHT22;2961;47.702;9.410;2024-01-06T13:23:38;4.00;99.90
5870;DHT22;2961;47.702;9.410;2024-01-06T13:26:04;3.90;99.90
5870;DHT22;2961;47.702;9.410;2024-01-06T13:28:32;4.00;99.90
5870;DHT22;2961;47.702;9.410;2024-01-06T13:31:00;4.00;99.90
5870;DHT22;2961;47.702;9.410;2024-01-06T13:33:27;4.00;99.90
5870;DHT22;2961;47.702;9.410;2024-01-06T13:35:54;4.00;99.90
5870;DHT22;2961;47.702;9.410;2024-01-06T13:38:21;4.00;99.90
5870;DHT22;2961;47.702;9.410;2024-01-06T13:40:48;4.00;99.90
5870;DHT22;2961;47.702;9.410;2024-01-06T13:43:15;4.00;99.90
5870;DHT22;2961;47.702;9.410;2024-01-06T13:45:43;4.00;99.90
5870;DHT22;2961;47.702;9.410;2024-01-06T13:48:10;4.00;99.90
5870;DHT22;2961;47.702;9.410;2024-01-06T13:50:37;4.00;99.90
5870;DHT22;2961;47.702;9.410;2024-01-06T13:53:04;4.00;99.90
5870;DHT22;2961;47.702;9.410;2024-01-06T13:55:32;4.00;99.90
5870;DHT22;2961;47.702;9.410;2024-01-06T13:57:59;3.90;99.90
5870;DHT22;2961;47.702;9.410;2024-01-06T14:00:26;3.90;99.90
5870;DHT22;2961;47.702;9.410;2024-01-06T14:02:55;3.90;99.90
5870;DHT22;2961;47.702;9.410;2024-01-06T14:05:22;4.00;99.90
5870;DHT22;2961;47.702;9.410;2024-01-06T14:07:48;4.00;99.90
5870;DHT22;2961;47.702;9.410;2024-01-06T14:10:16;3.90;99.90
5870;DHT22;2961;47.702;9.410;2024-01-06T14:12:43;3.90;99.90
5870;DHT22;2961;47.702;9.410;2024-01-06T14:15:10;3.90;99.90
5870;DHT22;2961;47.702;9.410;2024-01-06T14:17:38;3.90;99.90
5870;DHT22;2961;47.702;9.410;2024-01-06T14:20:08;3.90;99.90
5870;DHT22;2961;47.702;9.410;2024-01-06T14:22:38;3.90;99.90
5870;DHT22;2961;47.702;9.410;2024-01-06T14:25:05;4.00;99.90
5870;DHT22;2961;47.702;9.410;2024-01-06T14:27:32;4.00;99.90
5870;DHT22;2961;47.702;9.410;2024-01-06T14:29:59;4.00;99.90
5870;DHT22;2961;47.702;9.410;2024-01-06T14:32:26;3.90;99.90
5870;DHT22;2961;47.702;9.410;2024-01-06T14:34:53;3.90;99.90
5870;DHT22;2961;47.702;9.410;2024-01-06T14:37:21;3.90;99.90
5870;DHT22;2961;47.702;9.410;2024-01-06T14:39:48;3.90;99.90
5870;DHT22;2961;47.702;9.410;2024-01-06T14:42:14;3.90;99.90
5870;DHT22;2961;47.702;9.410;2024-01-06T14:44:42;3.80;99.90
5870;DHT22;2961;47.702;9.410;2024-01-06T14:47:08;3.80;99.90
5870;DHT22;2961;47.702;9.410;2024-01-06T14:49:35;3.80;99.90
5870;DHT22;2961;47.702;9.410;2024-01-06T14:52:02;3.80;99.90
5870;DHT22;2961;47.702;9.410;2024-01-06T14:54:31;3.80;99.90
5870;DHT22;2961;47.702;9.410;2024-01-06T14:56:58;3.80;99.90
5870;DHT22;2961;47.702;9.410;2024-01-06T14:59:25;3.80;99.90
5870;DHT22;2961;47.702;9.410;2024-01-06T15:01:52;3.80;99.90
5870;DHT22;2961;47.702;9.410;2024-01-06T15:04:19;3.80;99.90
5870;DHT22;2961;47.702;9.410;2024-01-06T15:06:46;3.80;99.90
5870;DHT22;2961;47.702;9.410;2024-01-06T15:09:13;3.80;99.90
5870;DHT22;2961;47.702;9.410;2024-01-06T15:11:41;3.80;99.90
5870;DHT22;2961;47.702;9.410;2024-01-06T15:14:08;3.70;99.90
5870;DHT22;2961;47.702;9.410;2024-01-06T15:16:35;3.70;99.90
5870;DHT22;2961;47.702;9.410;2024-01-06T15:19:02;3.70;99.90
5870;DHT22;2961;47.702;9.410;2024-01-06T15:21:29;3.70;99.90
5870;DHT22;2961;47.702;9.410;2024-01-06T15:23:58;3.70;99.90
5870;DHT22;2961;47.702;9.410;2024-01-06T15:26:26;3.70;99.90
5870;DHT22;2961;47.702;9.410;2024-01-06T15:28:55;3.70;99.90
5870;DHT22;2961;47.702;9.410;2024-01-06T15:31:26;3.70;99.90
5870;DHT22;2961;47.702;9.410;2024-01-06T15:33:52;3.60;99.90
5870;DHT22;2961;47.702;9.410;2024-01-06T15:36:19;3.60;99.90
5870;DHT22;2961;47.702;9.410;2024-01-06T15:38:46;3.60;99.90
5870;DHT22;2961;47.702;9.410;2024-01-06T15:41:14;3.60;99.90
5870;DHT22;2961;47.702;9.410;2024-01-06T15:43:40;3.60;99.90
5870;DHT22;2961;47.702;9.410;2024-01-06T15:46:08;3.60;99.90
5870;DHT22;2961;47.702;9.410;2024-01-06T15:48:36;3.60;99.90
5870;DHT22;2961;47.702;9.410;2024-01-06T15:51:03;3.60;99.90
5870;DHT22;2961;47.702;9.410;2024-01-06T15:53:30;3.60;99.90
5870;DHT22;2961;47.702;9.410;2024-01-06T15:55:58;3.60;99.90
5870;DHT22;2961;47.702;9.410;2024-01-06T15:58:25;3.60;99.90
5870;DHT22;2961;47.702;9.410;2024-01-06T16:00:52;3.60;99.90
5870;DHT22;2961;47.702;9.410;2024-01-06T16:03:20;3.60;99.90
5870;DHT22;2961;47.702;9.410;2024-01-06T16:05:47;3.60;99.90
5870;DHT22;2961;47.702;9.410;2024-01-06T16:08:14;3.60;99.90
5870;DHT22;2961;47.702;9.410;2024-01-06T16:10:40;3.60;99.90
5870;DHT22;2961;47.702;9.410;2024-01-06T16:13:07;3.60;99.90
5870;DHT22;2961;47.702;9.410;2024-01-06T16:15:34;3.60;99.90
5870;DHT22;2961;47.702;9.410;2024-01-06T16:18:01;3.60;99.90